Forside
METAR-TAF:

METAR-TAF

Lufthavne :

Macomb Municipal Airport

Macomb, Illinois, USA

Breddekreds: 40-31-13N, længdekreds: 090-39-09W, højde: 216 m

Aktuelle vejr

Denne rapport blev lavet for 23 minutter siden, kl. 23:15 UTC
Vind 8 kt fra vestsydvest
Temperatur 13°C
Fugtighed 82%
Tryk 1015 hPa
Sigt: 16.1 km
Brudte skyer i en højde af 3200 ft

METAR: KMQB 192315Z AUTO 24008KT 10SM BKN032 13/10 A2996 RMK AO2 T01310096

Tid: 18:38 (23:38 UTC)


TAF: fraværende

Vejrobservationer og prognoser fra mere end 4000 lufthavne (METAR og TAF).

De gule og røde prikker repræsenterer de meteorologiske stationer.

Flyt musen over at se navnet på stationen.

Så klik over at se vejr observationer og prognoser.

At skifte det kort: Klik på de grønne knapper med et sort kors for at zoome ind; på den grønne knap med en bindestreg for at zoome ud; eller på de grønne pile for tilstødende kort.


METAR-TAF: